Time;durP1;ratioP1;P1;durP2;ratioP2;P2;SDS_P1;SDS_P2;PMS_P1;PMS_P2;Temp;Humidity;BMP_temperature;BMP_pressure;BME280_temperature;BME280_humidity;BME280_pressure;Samples;Min_cycle;Max_cycle;Signal;HPM_P1;HPM_P2
2021/11/06 00:01:04;;;;;;;1003.63;933.58;;;;;;;19.73;49.55;101569.84;5043588;28;20021;-43
2021/11/06 00:03:30;;;;;;;911.25;848.47;;;;;;;19.64;49.51;101577.75;5040703;28;20389;-43
2021/11/06 00:05:57;;;;;;;969.13;902.38;;;;;;;19.55;49.62;101576.72;5046429;28;20028;-42
2021/11/06 00:08:23;;;;;;;926.17;862.53;;;;;;;19.48;49.66;101557.75;5046854;28;20024;-43
2021/11/06 00:10:50;;;;;;;907.00;844.55;;;;;;;19.36;50.07;101559.63;5046808;28;20057;-33
2021/11/06 00:13:18;;;;;;;926.95;860.83;;;;;;;18.96;50.36;101503.53;5047325;28;20028;-40
2021/11/06 00:15:45;;;;;;;941.42;875.42;;;;;;;19.25;50.76;101577.47;5043084;28;20025;-38
2021/11/06 00:18:12;;;;;;;928.67;867.13;;;;;;;19.43;50.11;101589.25;5042642;28;20021;-39
2021/11/06 00:20:39;;;;;;;957.22;892.75;;;;;;;19.54;50.02;101591.00;5037875;28;20116;-40
2021/11/06 00:23:05;;;;;;;982.25;915.08;;;;;;;19.63;49.73;101590.25;5057297;28;20032;-40
2021/11/06 00:25:31;;;;;;;936.63;871.97;;;;;;;19.64;49.67;101577.75;5047117;28;20029;-42
2021/11/06 00:27:58;;;;;;;951.97;887.90;;;;;;;19.72;49.90;101594.78;5045502;28;20447;-42
2021/11/06 00:30:24;;;;;;;980.00;913.05;;;;;;;19.78;49.42;101580.13;5044788;28;20042;-41
2021/11/06 00:32:50;;;;;;;975.38;908.22;;;;;;;19.75;49.63;101551.94;5043710;28;20029;-42
2021/11/06 00:35:17;;;;;;;963.55;899.45;;;;;;;19.79;49.48;101536.53;5041196;28;20059;-39
2021/11/06 00:37:44;;;;;;;987.08;919.17;;;;;;;19.80;49.18;101550.69;5046242;28;20043;-41
2021/11/06 00:40:11;;;;;;;971.63;905.00;;;;;;;19.82;49.37;101551.38;5042230;28;20031;-42
2021/11/06 00:42:37;;;;;;;989.10;921.20;;;;;;;19.84;49.02;101538.78;5038842;28;20090;-41
2021/11/06 00:45:04;;;;;;;983.97;916.40;;;;;;;19.86;49.28;101534.16;5046007;28;20333;-40
2021/11/06 00:47:30;;;;;;;991.25;923.38;;;;;;;19.84;48.96;101542.28;5035301;28;20029;-41
2021/11/06 00:49:57;;;;;;;901.20;839.53;;;;;;;19.95;48.97;101565.38;5040741;28;20405;-43
2021/11/06 00:52:23;;;;;;;962.58;896.97;;;;;;;19.97;49.33;101559.88;5050141;28;20107;-41
2021/11/06 00:54:49;;;;;;;978.30;911.25;;;;;;;19.98;49.09;101530.41;5056732;28;20029;-42
2021/11/06 00:57:16;;;;;;;982.97;915.20;;;;;;;20.05;49.31;101530.75;5038931;28;20055;-41
2021/11/06 00:59:42;;;;;;;942.33;878.45;;;;;;;20.12;48.85;101526.56;5041221;28;20030;-42
2021/11/06 01:02:08;;;;;;;986.72;917.63;;;;;;;20.13;48.76;101526.44;5047906;28;20021;-41
2021/11/06 01:04:35;;;;;;;996.60;927.10;;;;;;;20.16;49.01;101533.28;5042237;28;20033;-38
2021/11/06 01:07:01;;;;;;;1012.38;941.45;;;;;;;20.15;48.76;101552.97;5041993;28;20107;-43
2021/11/06 01:09:27;;;;;;;1004.83;935.58;;;;;;;20.17;49.03;101543.00;5051053;28;20595;-42
2021/11/06 01:11:54;;;;;;;1016.45;945.20;;;;;;;20.21;48.89;101532.91;5048017;28;20025;-42
2021/11/06 01:14:20;;;;;;;1002.78;932.35;;;;;;;20.16;48.90;101546.63;5034710;28;20095;-33
2021/11/06 01:16:46;;;;;;;996.42;926.70;;;;;;;20.19;48.60;101550.88;5036459;28;20096;-32
2021/11/06 01:19:12;;;;;;;1011.17;940.05;;;;;;;20.22;48.61;101553.28;5042976;28;20025;-33
2021/11/06 01:21:39;;;;;;;1010.75;940.08;;;;;;;20.24;48.52;101562.81;5039878;28;20132;-33
2021/11/06 01:24:06;;;;;;;994.90;924.33;;;;;;;20.24;48.89;101559.31;5039720;28;20025;-33
2021/11/06 01:26:32;;;;;;;1009.05;938.38;;;;;;;20.26;48.92;101562.69;5042629;28;20032;-33
2021/11/06 01:28:59;;;;;;;1010.30;939.25;;;;;;;20.25;49.00;101580.53;5040267;28;20039;-32
2021/11/06 01:31:26;;;;;;;994.10;924.00;;;;;;;20.27;48.47;101583.91;5043964;28;20412;-33
2021/11/06 01:33:52;;;;;;;1021.25;948.10;;;;;;;20.27;48.85;101578.56;5040411;28;20029;-32
2021/11/06 01:36:19;;;;;;;1010.50;937.95;;;;;;;20.29;48.79;101592.59;5042714;28;20470;-32
2021/11/06 01:38:45;;;;;;;995.63;924.65;;;;;;;20.26;49.17;101602.69;5041301;28;20104;-32
2021/11/06 01:41:12;;;;;;;999.30;929.15;;;;;;;20.21;48.88;101612.91;5045112;28;20020;-33
2021/11/06 01:43:38;;;;;;;1007.17;936.22;;;;;;;20.21;49.41;101605.75;5048036;28;20033;-33
2021/11/06 01:46:06;;;;;;;996.35;926.50;;;;;;;20.20;49.16;101608.53;5044202;28;20509;-32
2021/11/06 01:48:32;;;;;;;993.83;924.55;;;;;;;20.18;49.36;101622.03;5044858;28;20041;-32
2021/11/06 01:50:59;;;;;;;1001.22;930.55;;;;;;;20.15;49.26;101616.97;5043253;28;20033;-32
2021/11/06 01:53:25;;;;;;;1013.17;942.45;;;;;;;20.16;49.03;101620.47;5041325;28;20028;-33
2021/11/06 01:55:52;;;;;;;992.30;922.58;;;;;;;20.14;49.00;101628.59;5035165;28;20044;-32
2021/11/06 01:58:22;;;;;;;1002.75;932.28;;;;;;;20.10;49.15;101632.50;5032745;28;20029;-33
2021/11/06 02:00:49;;;;;;;996.35;926.65;;;;;;;20.10;49.48;101628.00;5037792;28;20036;-32
2021/11/06 02:03:16;;;;;;;995.55;926.22;;;;;;;20.10;49.40;101630.69;5041312;28;20112;-33
2021/11/06 02:05:42;;;;;;;1001.72;932.13;;;;;;;20.07;49.22;101633.59;5037975;28;20076;-32
2021/11/06 02:08:09;;;;;;;994.67;925.88;;;;;;;20.06;49.44;101636.44;5059042;28;20026;-33
2021/11/06 02:10:35;;;;;;;978.92;912.13;;;;;;;20.04;49.51;101647.22;5045420;28;20104;-33
2021/11/06 02:13:01;;;;;;;986.50;917.72;;;;;;;20.04;49.64;101644.56;5036620;28;20104;-32
2021/11/06 02:15:28;;;;;;;986.92;919.90;;;;;;;20.04;49.23;101641.88;5038810;28;20509;-32
2021/11/06 02:17:54;;;;;;;1000.22;931.10;;;;;;;20.00;49.67;101640.44;5038446;28;20029;-33
2021/11/06 02:20:21;;;;;;;999.60;931.05;;;;;;;19.97;49.74;101656.72;5049879;28;20358;-42
2021/11/06 02:22:47;;;;;;;980.53;913.70;;;;;;;20.00;49.58;101669.75;5041247;28;20033;-42
2021/11/06 02:25:14;;;;;;;988.65;920.45;;;;;;;19.98;49.59;101661.06;5035155;28;20026;-42
2021/11/06 02:27:40;;;;;;;985.22;917.20;;;;;;;19.97;49.58;101664.72;5047668;28;20108;-42
2021/11/06 02:30:08;;;;;;;994.17;924.85;;;;;;;19.92;49.69;101675.75;5044155;28;20036;-42
2021/11/06 02:32:35;;;;;;;1015.97;944.92;;;;;;;19.92;49.85;101677.59;5038867;28;20109;-42
2021/11/06 02:35:02;;;;;;;1001.60;932.55;;;;;;;19.92;49.66;101682.91;5039334;28;20033;-42
2021/11/06 02:37:28;;;;;;;983.33;915.97;;;;;;;19.94;49.73;101672.97;5035132;28;20069;-42
2021/11/06 02:39:54;;;;;;;989.05;921.63;;;;;;;19.93;49.59;101674.78;5036811;28;20028;-42
2021/11/06 02:42:21;;;;;;;962.67;896.67;;;;;;;19.86;50.01;101660.28;5039475;28;20028;-42
2021/11/06 02:44:47;;;;;;;989.47;921.15;;;;;;;19.84;49.58;101653.38;5051990;28;20494;-42
2021/11/06 02:47:14;;;;;;;996.50;927.10;;;;;;;19.91;49.95;101673.22;5037021;28;20051;-42
2021/11/06 02:49:41;;;;;;;982.70;915.53;;;;;;;19.91;49.83;101659.88;5034364;28;20112;-43
2021/11/06 02:52:07;;;;;;;952.20;887.75;;;;;;;19.90;49.96;101655.56;5036124;28;20033;-43
2021/11/06 02:54:34;;;;;;;998.92;930.38;;;;;;;19.84;50.04;101640.91;5035326;28;20111;-42
2021/11/06 02:57:00;;;;;;;1011.80;941.90;;;;;;;19.87;49.98;101637.97;5039768;28;20332;-41
2021/11/06 02:59:27;;;;;;;989.72;922.28;;;;;;;19.88;50.18;101633.47;5033814;28;20041;-42
2021/11/06 03:01:53;;;;;;;989.15;920.80;;;;;;;19.89;49.96;101627.19;5038663;28;20455;-42
2021/11/06 03:04:19;;;;;;;998.22;929.33;;;;;;;19.84;50.05;101629.41;5035485;28;20063;-42
2021/11/06 03:06:46;;;;;;;990.72;922.63;;;;;;;19.86;50.41;101635.44;5036460;28;20479;-42
2021/11/06 03:09:12;;;;;;;977.92;910.67;;;;;;;19.86;50.04;101627.44;5033683;28;20029;-42
2021/11/06 03:11:38;;;;;;;994.00;925.72;;;;;;;19.86;50.12;101622.13;5037110;28;20092;-42
2021/11/06 03:14:06;;;;;;;1021.28;950.45;;;;;;;19.72;50.31;101604.63;5042141;28;20451;-42
2021/11/06 03:16:32;;;;;;;978.05;911.17;;;;;;;19.82;50.04;101623.34;5041054;28;20117;-41
2021/11/06 03:18:58;;;;;;;1005.58;935.33;;;;;;;19.83;50.32;101628.56;5033403;28;20040;-42
2021/11/06 03:21:27;;;;;;;999.53;930.20;;;;;;;19.84;50.19;101632.91;5035858;28;20029;-42
2021/11/06 03:23:54;;;;;;;1021.40;951.35;;;;;;;19.79;50.47;101635.13;5042970;28;20447;-42
2021/11/06 03:26:20;;;;;;;990.83;921.78;;;;;;;19.79;50.27;101626.28;5051124;28;20079;-42
2021/11/06 03:28:46;;;;;;;1005.60;935.10;;;;;;;19.75;50.39;101610.56;5033566;28;20414;-43
2021/11/06 03:31:12;;;;;;;974.78;907.72;;;;;;;19.80;50.75;101607.50;5040953;28;20321;-42
2021/11/06 03:33:39;;;;;;;987.72;920.85;;;;;;;19.73;50.38;101599.16;5034149;28;20029;-42
2021/11/06 03:36:05;;;;;;;982.83;915.00;;;;;;;19.75;50.89;101599.03;5036538;28;20111;-42
2021/11/06 03:38:31;;;;;;;1012.30;941.28;;;;;;;19.76;50.21;101598.06;5050297;28;20025;-42
2021/11/06 03:40:58;;;;;;;952.28;888.33;;;;;;;19.79;50.36;101610.28;5045973;28;20031;-42
2021/11/06 03:43:24;;;;;;;954.58;890.13;;;;;;;19.80;50.61;101617.31;5045098;28;20040;-42
2021/11/06 03:45:50;;;;;;;985.08;919.00;;;;;;;19.78;50.46;101624.59;5033530;28;20033;-42
2021/11/06 03:48:17;;;;;;;977.30;910.92;;;;;;;19.78;50.39;101625.44;5037556;28;20040;-42
2021/11/06 03:50:43;;;;;;;983.08;916.30;;;;;;;19.82;50.37;101634.03;5033855;28;20468;-42
2021/11/06 03:53:09;;;;;;;985.40;918.80;;;;;;;19.81;50.34;101624.31;5041111;28;20033;-43
2021/11/06 03:55:35;;;;;;;980.65;915.10;;;;;;;19.81;50.38;101616.31;5037546;28;20029;-42
2021/11/06 03:58:02;;;;;;;965.05;900.55;;;;;;;19.82;50.04;101620.69;5042394;28;20029;-42
2021/11/06 04:00:28;;;;;;;982.65;916.50;;;;;;;19.84;49.96;101616.06;5033578;28;20467;-42
2021/11/06 04:02:54;;;;;;;1001.38;933.15;;;;;;;19.64;50.45;101577.75;5036451;28;20108;-42
2021/11/06 04:05:21;;;;;;;970.00;905.00;;;;;;;19.82;50.40;101610.88;5034257;28;20033;-43
2021/11/06 04:07:47;;;;;;;988.22;920.03;;;;;;;19.78;50.48;101606.78;5038914;28;20022;-43
2021/11/06 04:10:13;;;;;;;958.80;893.55;;;;;;;19.75;50.39;101607.91;5033213;28;20037;-43
2021/11/06 04:12:40;;;;;;;965.35;899.67;;;;;;;19.74;50.63;101610.69;5064942;28;20033;-43
2021/11/06 04:15:08;;;;;;;982.50;914.90;;;;;;;19.72;50.27;101621.44;5045781;28;20439;-42
2021/11/06 04:17:35;;;;;;;979.97;913.75;;;;;;;19.70;50.73;101620.72;5037964;28;20098;-43
2021/11/06 04:20:01;;;;;;;990.08;922.40;;;;;;;19.68;50.39;101620.00;5038029;28;20037;-42
2021/11/06 04:22:27;;;;;;;984.15;917.83;;;;;;;19.70;50.45;101625.19;5036984;28;20139;-42
2021/11/06 04:24:53;;;;;;;988.90;921.83;;;;;;;19.70;50.66;101642.06;5036905;28;20037;-42
2021/11/06 04:27:20;;;;;;;975.35;908.75;;;;;;;19.72;50.75;101637.44;5051838;28;20340;-42
2021/11/06 04:29:46;;;;;;;979.22;913.42;;;;;;;19.69;50.33;101636.84;5049152;28;20038;-42
2021/11/06 04:32:12;;;;;;;979.42;912.83;;;;;;;19.73;50.24;101649.81;5039810;28;20079;-42
2021/11/06 04:34:39;;;;;;;975.13;909.22;;;;;;;19.71;50.32;101651.72;5039609;28;20033;-43
2021/11/06 04:37:05;;;;;;;958.25;893.50;;;;;;;19.67;50.74;101665.44;5039764;28;20433;-43
2021/11/06 04:39:32;;;;;;;982.53;915.08;;;;;;;19.65;50.66;101673.56;5040829;28;20346;-43
2021/11/06 04:41:58;;;;;;;969.65;905.03;;;;;;;19.65;50.46;101670.91;5036213;28;20439;-42
2021/11/06 04:44:24;;;;;;;980.53;914.30;;;;;;;19.64;50.92;101669.19;5051976;28;20029;-43
2021/11/06 04:46:51;;;;;;;981.67;914.88;;;;;;;19.65;50.73;101670.91;5056514;28;20123;-42
2021/11/06 04:49:17;;;;;;;979.80;912.83;;;;;;;19.62;50.53;101668.50;5051621;28;20032;-42
2021/11/06 04:51:44;;;;;;;985.00;918.00;;;;;;;19.62;50.36;101660.50;5039768;28;20394;-42
2021/11/06 04:54:10;;;;;;;980.20;913.33;;;;;;;19.63;50.75;101651.53;5040962;28;20067;-43
2021/11/06 04:56:37;;;;;;;974.45;907.88;;;;;;;19.63;50.33;101664.88;5039909;28;20093;-42
2021/11/06 04:59:03;;;;;;;969.60;904.08;;;;;;;19.63;50.56;101656.88;5041949;28;20029;-43
2021/11/06 05:01:30;;;;;;;960.55;895.88;;;;;;;19.62;50.12;101665.81;5039894;28;20101;-43
2021/11/06 05:03:57;;;;;;;975.38;909.47;;;;;;;19.63;50.54;101672.00;5051135;28;20087;-42
2021/11/06 05:06:23;;;;;;;972.05;905.85;;;;;;;19.58;50.75;101691.03;5041032;28;20026;-43
2021/11/06 05:08:50;;;;;;;975.53;909.45;;;;;;;19.56;50.69;101707.16;5038075;28;20067;-43
2021/11/06 05:11:16;;;;;;;984.55;918.28;;;;;;;19.55;50.61;101708.09;5052145;28;20052;-43
2021/11/06 05:13:42;;;;;;;967.92;902.20;;;;;;;19.56;50.77;101707.16;5050193;28;20095;-43
2021/11/06 05:16:08;;;;;;;1004.47;936.33;;;;;;;19.34;50.73;101681.41;5040212;28;20037;-43
2021/11/06 05:18:35;;;;;;;980.40;914.30;;;;;;;19.51;50.85;101713.84;5036234;28;20033;-42
2021/11/06 05:21:02;;;;;;;991.40;924.60;;;;;;;19.50;50.64;101712.97;5049519;28;20029;-43
2021/11/06 05:23:28;;;;;;;969.75;903.97;;;;;;;19.53;50.40;101719.88;5038916;28;20166;-43
2021/11/06 05:25:54;;;;;;;985.90;918.35;;;;;;;19.53;50.49;101727.88;5037390;28;20406;-42
2021/11/06 05:28:20;;;;;;;954.03;889.95;;;;;;;19.53;50.33;101722.53;5039807;28;20024;-42
2021/11/06 05:30:47;;;;;;;992.30;925.20;;;;;;;19.51;50.31;101716.50;5035181;28;20026;-42
2021/11/06 05:33:13;;;;;;;957.80;894.47;;;;;;;19.49;50.60;101726.41;5050032;28;20039;-43
2021/11/06 05:35:40;;;;;;;957.88;893.95;;;;;;;19.48;50.66;101735.38;5043389;28;20026;-43
2021/11/06 05:38:06;;;;;;;984.05;917.53;;;;;;;19.47;50.67;101739.00;5050104;28;20028;-42
2021/11/06 05:40:33;;;;;;;972.17;907.40;;;;;;;19.48;50.82;101735.38;5038033;28;20046;-42
2021/11/06 05:42:59;;;;;;;966.47;902.20;;;;;;;19.42;50.57;101730.53;5052345;28;20087;-42
2021/11/06 05:45:26;;;;;;;996.58;928.60;;;;;;;19.42;50.68;101735.88;5050271;28;20029;-43
2021/11/06 05:47:52;;;;;;;963.53;898.20;;;;;;;19.41;50.53;101734.19;5035193;28;20021;-43
2021/11/06 05:50:19;;;;;;;992.17;924.70;;;;;;;19.40;50.95;101735.16;5048626;28;20174;-43
2021/11/06 05:52:45;;;;;;;986.10;918.75;;;;;;;19.39;51.08;101734.31;5041370;28;20025;-43
2021/11/06 05:55:14;;;;;;;953.38;889.83;;;;;;;19.39;50.99;101742.31;5043377;28;20033;-42
2021/11/06 05:57:41;;;;;;;933.67;871.53;;;;;;;19.42;50.45;101739.41;5039153;28;20060;-43
2021/11/06 06:00:10;;;;;;;977.58;912.35;;;;;;;19.41;50.59;101731.53;5045001;28;20018;-43
2021/11/06 06:02:37;;;;;;;989.50;922.65;;;;;;;19.36;50.55;101716.78;5034872;28;20120;-42
2021/11/06 06:05:04;;;;;;;970.03;904.92;;;;;;;19.37;50.76;101713.13;5041171;28;20025;-43
2021/11/06 06:07:31;;;;;;;992.33;924.92;;;;;;;19.38;50.52;101713.97;5049539;28;20131;-43
2021/11/06 06:09:57;;;;;;;982.95;916.20;;;;;;;19.34;50.65;101718.69;5043890;28;20029;-44
2021/11/06 06:12:23;;;;;;;988.13;920.22;;;;;;;19.32;50.98;101717.16;5039743;28;20085;-43
2021/11/06 06:14:50;;;;;;;970.30;905.08;;;;;;;19.31;50.75;101728.75;5034900;28;20104;-43
2021/11/06 06:17:16;;;;;;;993.35;925.05;;;;;;;19.29;50.66;101728.03;5047284;28;20043;-43
2021/11/06 06:19:42;;;;;;;986.28;920.20;;;;;;;19.27;50.91;101714.84;5039339;28;20093;-43
2021/11/06 06:22:08;;;;;;;980.03;913.53;;;;;;;19.28;51.04;101721.88;5037851;28;20040;-43
2021/11/06 06:24:35;;;;;;;983.80;916.70;;;;;;;19.30;50.82;101733.25;5048515;28;20024;-43
2021/11/06 06:27:01;;;;;;;950.25;886.42;;;;;;;19.32;50.66;101731.28;5047361;28;20067;-43
2021/11/06 06:29:28;;;;;;;988.33;921.80;;;;;;;19.32;50.57;101733.13;5039597;28;20324;-43
2021/11/06 06:31:54;;;;;;;942.45;880.47;;;;;;;19.29;50.74;101746.69;5049234;28;20112;-43
2021/11/06 06:34:20;;;;;;;959.88;895.90;;;;;;;19.30;50.74;101749.22;5045769;28;20048;-43
2021/11/06 06:36:47;;;;;;;1001.45;934.17;;;;;;;19.27;50.83;101749.47;5038313;28;20018;-43
2021/11/06 06:39:13;;;;;;;965.05;898.97;;;;;;;19.19;50.95;101736.78;5051583;28;20389;-43
2021/11/06 06:41:40;;;;;;;996.10;929.55;;;;;;;19.17;51.22;101743.22;5037282;28;20029;-43
2021/11/06 06:44:06;;;;;;;980.63;914.70;;;;;;;19.19;50.87;101747.44;5043724;28;20057;-42
2021/11/06 06:46:32;;;;;;;997.80;930.63;;;;;;;19.17;50.80;101751.19;5044407;28;20056;-42
2021/11/06 06:48:59;;;;;;;992.70;925.95;;;;;;;19.12;50.76;101753.38;5050059;28;20104;-43
2021/11/06 06:51:25;;;;;;;972.75;908.20;;;;;;;19.15;50.64;101753.97;5043942;28;20021;-43
2021/11/06 06:53:51;;;;;;;970.30;906.70;;;;;;;19.18;50.62;101755.53;5044416;28;20048;-43
2021/11/06 06:56:18;;;;;;;987.95;920.53;;;;;;;19.19;50.56;101751.91;5034680;28;20126;-43
2021/11/06 06:58:44;;;;;;;990.90;924.33;;;;;;;19.19;50.79;101750.09;5047008;28;20450;-43
2021/11/06 07:01:10;;;;;;;986.42;920.67;;;;;;;19.19;50.76;101752.75;5041699;28;20025;-43
2021/11/06 07:03:36;;;;;;;985.42;919.70;;;;;;;19.19;50.68;101750.09;5034318;28;20471;-42
2021/11/06 07:06:03;;;;;;;990.88;923.83;;;;;;;19.18;50.59;101750.22;5040760;28;20033;-43
2021/11/06 07:08:30;;;;;;;981.47;914.75;;;;;;;19.13;50.58;101747.06;5045522;28;20107;-43
2021/11/06 07:10:56;;;;;;;983.10;917.13;;;;;;;19.05;50.83;101742.38;5037473;28;20490;-42
2021/11/06 07:13:24;;;;;;;999.00;931.28;;;;;;;19.11;50.68;101749.00;5043891;28;20462;-42
2021/11/06 07:15:50;;;;;;;995.78;929.38;;;;;;;19.12;50.60;101761.38;5042949;28;20047;-42
2021/11/06 07:18:17;;;;;;;964.33;899.92;;;;;;;19.09;50.94;101767.75;5036339;28;20033;-43
2021/11/06 07:20:43;;;;;;;976.35;910.80;;;;;;;19.11;50.56;101768.47;5034780;28;20355;-43
2021/11/06 07:23:10;;;;;;;1005.40;937.08;;;;;;;19.11;50.44;101770.31;5034403;28;20534;-44
2021/11/06 07:25:37;;;;;;;990.88;924.05;;;;;;;19.10;50.79;101773.97;5042245;28;20026;-43
2021/11/06 07:28:03;;;;;;;999.70;932.95;;;;;;;18.94;50.36;101737.91;5035295;28;20038;-42
2021/11/06 07:30:30;;;;;;;1000.15;932.40;;;;;;;19.09;50.45;101762.44;5043541;28;20104;-43
2021/11/06 07:32:56;;;;;;;981.30;916.20;;;;;;;19.09;50.74;101761.59;5033249;28;20470;-43
2021/11/06 07:35:23;;;;;;;974.80;910.30;;;;;;;19.06;50.54;101761.84;5046250;28;20036;-43
2021/11/06 07:37:49;;;;;;;964.40;900.15;;;;;;;19.06;50.48;101762.69;5038653;28;20048;-43
2021/11/06 07:40:15;;;;;;;964.67;900.08;;;;;;;19.03;50.58;101756.75;5035118;28;20069;-42
2021/11/06 07:42:45;;;;;;;983.47;917.92;;;;;;;19.00;50.92;101755.19;5036282;28;20498;-43
2021/11/06 07:45:13;;;;;;;981.03;915.65;;;;;;;19.02;50.58;101752.41;5034796;28;20034;-42
2021/11/06 07:47:39;;;;;;;992.78;926.42;;;;;;;18.98;50.86;101752.66;5039630;28;20099;-43
2021/11/06 07:50:06;;;;;;;998.00;930.38;;;;;;;18.93;50.92;101753.97;5048172;28;20033;-43
2021/11/06 07:52:32;;;;;;;974.88;910.47;;;;;;;18.95;50.85;101758.19;5049404;28;20029;-42
2021/11/06 07:54:59;;;;;;;954.08;890.97;;;;;;;19.00;50.52;101760.50;5033510;28;20091;-43
2021/11/06 07:57:25;;;;;;;973.45;908.80;;;;;;;19.01;50.80;101764.88;5037753;28;20026;-43
2021/11/06 07:59:51;;;;;;;995.78;928.88;;;;;;;19.00;50.47;101766.69;5050542;28;20124;-43
2021/11/06 08:02:17;;;;;;;987.03;921.88;;;;;;;18.99;50.30;101759.69;5037568;28;20052;-42
2021/11/06 08:04:44;;;;;;;947.45;884.95;;;;;;;18.95;50.76;101757.38;5042727;28;20539;-43
2021/11/06 08:07:10;;;;;;;982.35;916.63;;;;;;;18.96;50.71;101762.56;5047019;28;20398;-43
2021/11/06 08:09:37;;;;;;;972.78;908.08;;;;;;;18.94;50.70;101761.00;5050799;28;20021;-43
2021/11/06 08:12:03;;;;;;;976.20;912.05;;;;;;;18.96;50.50;101759.91;5051244;28;20048;-42
2021/11/06 08:14:29;;;;;;;990.28;924.30;;;;;;;18.91;50.57;101764.75;5044669;28;20039;-43
2021/11/06 08:16:56;;;;;;;998.58;931.30;;;;;;;18.93;50.59;101772.63;5053606;28;20131;-42
2021/11/06 08:19:26;;;;;;;988.95;923.80;;;;;;;18.86;50.60;101784.72;5048139;28;20029;-42
2021/11/06 08:21:52;;;;;;;990.08;922.83;;;;;;;18.89;50.52;101793.31;5036753;28;20040;-42
2021/11/06 08:24:22;;;;;;;986.05;920.95;;;;;;;18.90;50.61;101789.69;5049787;28;20035;-42
2021/11/06 08:26:50;;;;;;;972.60;907.83;;;;;;;18.89;50.37;101787.13;5042995;28;20340;-43
2021/11/06 08:29:16;;;;;;;989.70;923.55;;;;;;;18.91;50.51;101772.72;5037496;28;20025;-42
2021/11/06 08:31:43;;;;;;;973.10;908.25;;;;;;;18.89;50.24;101774.66;5037867;28;20473;-43
2021/11/06 08:34:09;;;;;;;991.53;924.22;;;;;;;18.84;50.34;101760.03;5050078;28;20041;-42
2021/11/06 08:36:36;;;;;;;976.70;911.55;;;;;;;18.88;50.51;101764.97;5055697;28;20026;-43
2021/11/06 08:39:04;;;;;;;975.85;909.60;;;;;;;18.84;50.35;101763.53;5042334;28;20108;-43
2021/11/06 08:41:30;;;;;;;966.60;901.45;;;;;;;18.81;50.47;101761.06;5065396;28;20017;-42
2021/11/06 08:43:57;;;;;;;981.13;915.47;;;;;;;18.79;50.43;101763.00;5049637;28;20033;-42
2021/11/06 08:46:23;;;;;;;987.78;920.85;;;;;;;18.80;50.46;101764.72;5054234;28;20443;-43
2021/11/06 08:48:49;;;;;;;972.03;906.85;;;;;;;18.78;50.63;101766.66;5054735;28;20044;-43
2021/11/06 08:51:16;;;;;;;997.17;930.72;;;;;;;18.80;50.79;101762.06;5045999;28;20033;-43
2021/11/06 08:53:45;;;;;;;987.67;921.50;;;;;;;18.80;50.44;101757.56;5055699;28;20489;-42
2021/11/06 08:56:11;;;;;;;972.75;907.83;;;;;;;18.82;50.28;101765.47;5043274;28;20033;-43
2021/11/06 08:58:37;;;;;;;972.00;907.63;;;;;;;18.86;50.40;101760.75;5040203;28;20033;-42
2021/11/06 09:01:04;;;;;;;977.08;912.45;;;;;;;18.79;50.24;101755.88;5037932;28;20028;-42
2021/11/06 09:03:30;;;;;;;981.22;914.53;;;;;;;18.83;50.27;101761.81;5037712;28;20052;-42
2021/11/06 09:05:56;;;;;;;974.67;909.78;;;;;;;18.79;50.48;101758.53;5042240;28;20033;-42
2021/11/06 09:08:31;;;;;;;973.10;908.50;;;;;;;18.73;50.70;101764.34;5048034;28;20033;-43
2021/11/06 09:11:02;;;;;;;976.85;910.95;;;;;;;18.72;50.73;101767.97;5035474;28;20499;-42
2021/11/06 09:13:28;;;;;;;978.30;913.80;;;;;;;18.74;50.49;101768.72;5040849;28;20040;-42
2021/11/06 09:15:55;;;;;;;952.80;889.75;;;;;;;18.73;50.59;101768.81;5039466;28;20040;-42
2021/11/06 09:18:21;;;;;;;948.80;886.50;;;;;;;18.73;50.51;101776.81;5049936;28;20041;-43
2021/11/06 09:20:48;;;;;;;971.42;907.03;;;;;;;18.71;50.52;101773.44;5036459;28;20018;-42
2021/11/06 09:23:14;;;;;;;969.08;905.55;;;;;;;18.72;50.32;101775.94;5042695;28;20105;-43
2021/11/06 09:25:40;;;;;;;956.45;893.60;;;;;;;18.75;50.41;101773.03;5041088;28;20026;-43
2021/11/06 09:28:07;;;;;;;979.25;914.15;;;;;;;18.76;50.27;101773.88;5050428;28;20017;-43
2021/11/06 09:30:33;;;;;;;956.30;893.85;;;;;;;18.77;50.17;101768.44;5044272;28;20036;-42
2021/11/06 09:33:00;;;;;;;949.58;886.92;;;;;;;18.75;50.53;101773.03;5035635;28;20475;-43
2021/11/06 09:35:26;;;;;;;958.40;895.30;;;;;;;18.72;50.53;101764.47;5041751;28;20063;-43
2021/11/06 09:37:52;;;;;;;977.55;913.05;;;;;;;18.69;50.44;101764.69;5041509;28;20037;-43
2021/11/06 09:40:18;;;;;;;975.15;910.78;;;;;;;18.70;50.38;101766.41;5036770;28;20278;-43
2021/11/06 09:42:45;;;;;;;964.67;900.72;;;;;;;18.70;50.56;101761.06;5048507;28;20066;-42
2021/11/06 09:45:12;;;;;;;974.47;909.60;;;;;;;18.69;50.33;101752.25;5044327;28;20120;-43
2021/11/06 09:47:43;;;;;;;989.53;924.10;;;;;;;18.65;50.74;101739.31;5043779;28;20078;-43
2021/11/06 09:50:13;;;;;;;966.35;903.83;;;;;;;18.56;50.69;101731.06;5050827;28;20056;-42
2021/11/06 09:52:40;;;;;;;971.30;906.80;;;;;;;18.67;50.44;101751.53;5050505;28;20030;-43
2021/11/06 09:55:06;;;;;;;974.67;910.00;;;;;;;18.68;50.59;101750.53;5055578;28;20096;-43
2021/11/06 09:57:33;;;;;;;965.75;902.28;;;;;;;18.70;50.27;101750.44;5050901;28;20540;-42
2021/11/06 09:59:59;;;;;;;971.35;907.17;;;;;;;18.70;50.38;101753.09;5055041;28;20459;-43
2021/11/06 10:02:25;;;;;;;957.10;894.95;;;;;;;18.65;50.58;101741.97;5053840;28;20082;-43
2021/11/06 10:04:51;;;;;;;961.47;898.45;;;;;;;18.68;50.38;101749.72;5048360;28;20037;-43
2021/11/06 10:07:22;;;;;;;945.03;883.05;;;;;;;18.63;50.82;101755.38;5049374;28;20032;-42
2021/11/06 10:10:14;;;;;;;966.05;902.92;;;;;;;18.56;50.66;101744.34;5045658;28;20369;-43
2021/11/06 10:12:50;;;;;;;955.55;893.92;;;;;;;18.59;50.84;101757.44;5053075;28;20040;-42
2021/11/06 10:15:17;;;;;;;962.25;899.72;;;;;;;18.57;50.76;101746.06;5054591;28;20111;-42
2021/11/06 10:17:43;;;;;;;972.97;908.92;;;;;;;18.58;50.41;101745.13;5065703;28;20021;-43
2021/11/06 10:20:30;;;;;;;968.75;904.80;;;;;;;18.62;50.70;101746.56;5036046;28;20025;-43
2021/11/06 10:22:58;;;;;;;949.88;888.22;;;;;;;18.56;50.60;101738.19;5036675;28;20059;-42
2021/11/06 10:25:25;;;;;;;949.47;887.55;;;;;;;18.59;50.50;101749.44;5053768;28;20024;-42
2021/11/06 10:27:53;;;;;;;914.78;857.63;;;;;;;18.59;50.37;101743.28;5047057;28;20466;-43
2021/11/06 10:30:25;;;;;;;961.83;898.50;;;;;;;18.57;50.68;101740.75;5049805;28;20054;-42
2021/11/06 10:33:15;;;;;;;958.90;897.13;;;;;;;18.62;50.32;101727.94;5052004;28;20363;-42
2021/11/06 10:35:46;;;;;;;949.40;888.03;;;;;;;18.56;50.44;101736.38;5064075;28;20033;-42
2021/11/06 10:38:19;;;;;;;970.42;906.78;;;;;;;18.49;50.46;101727.19;5043623;28;20403;-42
2021/11/06 10:40:55;;;;;;;940.28;878.10;;;;;;;18.52;50.72;101726.13;5034967;28;20018;-42
2021/11/06 10:43:24;;;;;;;972.88;909.05;;;;;;;18.50;50.70;101712.94;5041329;28;20187;-42
2021/11/06 10:45:52;;;;;;;970.75;907.70;;;;;;;18.49;50.86;101716.53;5050885;28;20078;-43
2021/11/06 10:48:20;;;;;;;965.65;902.50;;;;;;;18.49;50.53;101729.84;5039713;28;20333;-43
2021/11/06 10:51:02;;;;;;;958.75;896.45;;;;;;;18.50;50.42;101730.72;5051967;28;20021;-42